Time;durP1;ratioP1;P1;durP2;ratioP2;P2;SDS_P1;SDS_P2;PMS_P1;PMS_P2;Temp;Humidity;BMP_temperature;BMP_pressure;BME280_temperature;BME280_humidity;BME280_pressure;Samples;Min_cycle;Max_cycle;Signal;HPM_P1;HPM_P2
2022/11/02 00:02:15;;;;;;;4.57;2.30;;;;;;;;;;4996252;28;20431;-85
2022/11/02 00:04:41;;;;;;;9.93;3.00;;;;;;;;;;4994644;28;20042;-84
2022/11/02 00:07:06;;;;;;;9.43;2.80;;;;;;;;;;4996791;28;20377;-85
2022/11/02 00:09:32;;;;;;;8.35;3.33;;;;;;;;;;4996845;28;20065;-85
2022/11/02 00:11:57;;;;;;;9.65;3.13;;;;;;;;;;4996805;28;20030;-85
2022/11/02 00:14:23;;;;;;;6.47;2.75;;;;;;;;;;4994818;28;20042;-85
2022/11/02 00:16:48;;;;;;;10.43;2.83;;;;;;;;;;4996391;28;20034;-85
2022/11/02 00:19:14;;;;;;;5.80;2.90;;;;;;;;;;4999059;28;20054;-85
2022/11/02 00:21:40;;;;;;;6.43;2.55;;;;;;;;;;5000444;28;20026;-85
2022/11/02 00:24:07;;;;;;;5.38;2.40;;;;;;;;;;4999264;28;20042;-84
2022/11/02 00:26:35;;;;;;;4.43;2.20;;;;;;;;;;5000403;28;20038;-85
2022/11/02 00:29:00;;;;;;;7.70;2.70;;;;;;;;;;4998617;28;20038;-86
2022/11/02 00:31:26;;;;;;;6.60;2.60;;;;;;;;;;4998446;28;20031;-85
2022/11/02 00:33:51;;;;;;;5.10;2.40;;;;;;;;;;4998744;28;20024;-85
2022/11/02 00:36:17;;;;;;;3.70;2.38;;;;;;;;;;4998327;28;20070;-85
2022/11/02 00:38:42;;;;;;;6.50;2.30;;;;;;;;;;4998511;28;20026;-85
2022/11/02 00:41:08;;;;;;;4.07;2.20;;;;;;;;;;4999951;28;20041;-85
2022/11/02 00:43:34;;;;;;;6.95;2.33;;;;;;;;;;5014902;28;20030;-85
2022/11/02 00:46:00;;;;;;;5.07;2.30;;;;;;;;;;4997525;28;20030;-86
2022/11/02 00:48:25;;;;;;;7.45;2.20;;;;;;;;;;4999098;28;20022;-85
2022/11/02 00:50:52;;;;;;;6.97;2.30;;;;;;;;;;4997569;28;20184;-85
2022/11/02 00:53:20;;;;;;;4.50;2.38;;;;;;;;;;4997674;28;20053;-83
2022/11/02 00:55:52;;;;;;;6.63;1.90;;;;;;;;;;4996635;28;20104;-84
2022/11/02 00:58:19;;;;;;;7.05;2.50;;;;;;;;;;4997748;28;20026;-84
2022/11/02 01:00:44;;;;;;;8.00;2.80;;;;;;;;;;4997319;28;20056;-84
2022/11/02 01:03:10;;;;;;;5.63;2.42;;;;;;;;;;4998702;28;20048;-85
2022/11/02 01:05:36;;;;;;;4.65;2.42;;;;;;;;;;4996623;28;20026;-85
2022/11/02 01:08:03;;;;;;;5.05;2.50;;;;;;;;;;4998266;28;20034;-85
2022/11/02 01:10:28;;;;;;;7.45;2.30;;;;;;;;;;4998059;28;20509;-85
2022/11/02 01:12:54;;;;;;;6.18;2.13;;;;;;;;;;4996767;28;20113;-84
2022/11/02 01:15:19;;;;;;;4.05;1.98;;;;;;;;;;4997193;28;20491;-84
2022/11/02 01:17:45;;;;;;;5.43;2.35;;;;;;;;;;4996639;28;20153;-84
2022/11/02 01:20:11;;;;;;;8.63;2.60;;;;;;;;;;4996328;28;20411;-84
2022/11/02 01:22:36;;;;;;;5.93;2.33;;;;;;;;;;5012410;28;20125;-85
2022/11/02 01:25:02;;;;;;;6.63;2.30;;;;;;;;;;4979479;28;20556;-85
2022/11/02 01:27:28;;;;;;;5.28;2.30;;;;;;;;;;4995595;28;20034;-85
2022/11/02 01:29:53;;;;;;;9.35;2.55;;;;;;;;;;4994429;28;20040;-84
2022/11/02 01:32:19;;;;;;;3.83;1.77;;;;;;;;;;4996616;28;20081;-84
2022/11/02 01:34:44;;;;;;;6.93;1.98;;;;;;;;;;4994725;28;20081;-85
2022/11/02 01:37:10;;;;;;;9.07;2.60;;;;;;;;;;4996437;28;20455;-85
2022/11/02 01:39:37;;;;;;;10.52;2.35;;;;;;;;;;4996919;28;20411;-85
2022/11/02 01:42:03;;;;;;;5.22;2.10;;;;;;;;;;5013657;28;20034;-85
2022/11/02 01:44:33;;;;;;;5.10;2.08;;;;;;;;;;4996277;28;20066;-85
2022/11/02 01:47:04;;;;;;;10.88;2.47;;;;;;;;;;4998194;28;20030;-85
2022/11/02 01:49:34;;;;;;;6.88;2.35;;;;;;;;;;4998249;28;20038;-85
2022/11/02 01:52:07;;;;;;;3.53;2.10;;;;;;;;;;4998660;28;20026;-85
2022/11/02 01:54:49;;;;;;;6.03;2.10;;;;;;;;;;5012356;28;20038;-85
2022/11/02 01:57:19;;;;;;;4.87;2.10;;;;;;;;;;4996963;28;20088;-85
2022/11/02 02:00:04;;;;;;;6.32;2.15;;;;;;;;;;5013467;28;20061;-85
2022/11/02 02:02:54;;;;;;;6.30;2.33;;;;;;;;;;4997876;28;20034;-85
2022/11/02 02:05:23;;;;;;;4.10;2.08;;;;;;;;;;5012668;28;20034;-84
2022/11/02 02:07:50;;;;;;;4.32;2.65;;;;;;;;;;4996436;28;20487;-85
2022/11/02 02:10:16;;;;;;;5.30;2.10;;;;;;;;;;4996766;28;20097;-84
2022/11/02 02:12:43;;;;;;;4.95;2.20;;;;;;;;;;4994629;28;20034;-84
2022/11/02 02:15:10;;;;;;;9.13;2.63;;;;;;;;;;4979708;28;20045;-85
2022/11/02 02:17:43;;;;;;;6.22;2.40;;;;;;;;;;4996455;28;20034;-85
2022/11/02 02:20:36;;;;;;;5.60;2.42;;;;;;;;;;4997145;28;20610;-85
2022/11/02 02:23:02;;;;;;;7.35;2.40;;;;;;;;;;4997027;28;20491;-85
2022/11/02 02:25:57;;;;;;;5.80;2.30;;;;;;;;;;4996913;28;20049;-85
2022/11/02 02:29:01;;;;;;;7.30;2.25;;;;;;;;;;4997201;28;20496;-84
2022/11/02 02:31:35;;;;;;;8.60;2.60;;;;;;;;;;4996089;28;20034;-83
2022/11/02 02:34:07;;;;;;;5.45;2.20;;;;;;;;;;4995514;28;20125;-85
2022/11/02 02:37:02;;;;;;;8.20;2.53;;;;;;;;;;5011985;28;20042;-84
2022/11/02 02:39:43;;;;;;;5.57;2.20;;;;;;;;;;5012019;28;20030;-84
2022/11/02 02:42:32;;;;;;;7.07;2.40;;;;;;;;;;4995898;28;20457;-85
2022/11/02 02:45:09;;;;;;;4.53;2.00;;;;;;;;;;4996449;28;20064;-85
2022/11/02 02:47:38;;;;;;;4.13;1.95;;;;;;;;;;4996480;28;20042;-85
2022/11/02 02:50:15;;;;;;;5.72;1.88;;;;;;;;;;4995875;28;20057;-85
2022/11/02 02:52:44;;;;;;;7.13;2.22;;;;;;;;;;4995684;28;20053;-85
2022/11/02 02:55:16;;;;;;;4.85;2.00;;;;;;;;;;4994996;28;20041;-85
2022/11/02 02:57:44;;;;;;;6.15;2.63;;;;;;;;;;4996918;28;20030;-85
2022/11/02 03:00:15;;;;;;;6.40;2.53;;;;;;;;;;4995186;28;20034;-84
2022/11/02 03:02:43;;;;;;;6.40;2.47;;;;;;;;;;4995091;28;20096;-85
2022/11/02 03:05:25;;;;;;;6.70;2.20;;;;;;;;;;4994714;28;20034;-84
2022/11/02 03:07:51;;;;;;;5.13;1.80;;;;;;;;;;5011376;28;20038;-85
2022/11/02 03:10:46;;;;;;;5.47;1.80;;;;;;;;;;4995473;28;20030;-84
2022/11/02 03:13:41;;;;;;;5.40;1.88;;;;;;;;;;5009496;28;20034;-83
2022/11/02 03:16:29;;;;;;;6.47;1.80;;;;;;;;;;4993943;28;20030;-84
2022/11/02 03:19:21;;;;;;;4.18;1.75;;;;;;;;;;4994688;28;20565;-85
2022/11/02 03:21:54;;;;;;;5.35;2.13;;;;;;;;;;4984376;28;20113;-85
2022/11/02 03:24:23;;;;;;;3.92;1.65;;;;;;;;;;5010556;28;20042;-85
2022/11/02 03:27:04;;;;;;;5.07;1.90;;;;;;;;;;4994814;28;20123;-84
2022/11/02 03:29:39;;;;;;;7.07;2.30;;;;;;;;;;5010990;28;20442;-85
2022/11/02 03:32:12;;;;;;;4.68;2.00;;;;;;;;;;4994269;28;20472;-83
2022/11/02 03:34:54;;;;;;;6.03;2.28;;;;;;;;;;4993464;28;20034;-83
2022/11/02 03:37:26;;;;;;;5.80;2.42;;;;;;;;;;4995225;28;20491;-84
2022/11/02 03:40:12;;;;;;;6.50;2.30;;;;;;;;;;4993986;28;20054;-84
2022/11/02 03:42:41;;;;;;;7.65;2.15;;;;;;;;;;4993841;28;20561;-84
2022/11/02 03:45:25;;;;;;;5.35;2.03;;;;;;;;;;4993070;28;20514;-83
2022/11/02 03:47:57;;;;;;;6.45;2.42;;;;;;;;;;4993056;28;20057;-84
2022/11/02 03:50:23;;;;;;;5.07;2.40;;;;;;;;;;4993628;28;20038;-84
2022/11/02 03:52:55;;;;;;;5.07;2.10;;;;;;;;;;4994515;28;20026;-84
2022/11/02 03:55:32;;;;;;;6.32;2.25;;;;;;;;;;4996659;28;20041;-84
2022/11/02 03:57:58;;;;;;;8.05;2.35;;;;;;;;;;4998697;28;20089;-85
2022/11/02 04:00:33;;;;;;;6.97;2.50;;;;;;;;;;4999545;28;20041;-85
2022/11/02 04:03:05;;;;;;;7.53;3.10;;;;;;;;;;4999329;28;20034;-85
2022/11/02 04:05:35;;;;;;;13.00;4.28;;;;;;;;;;4998005;28;20097;-84
2022/11/02 04:08:19;;;;;;;10.93;3.70;;;;;;;;;;4999207;28;20491;-84
2022/11/02 04:16:21;;;;;;;8.63;4.03;;;;;;;;;;4998249;28;20038;-85
2022/11/02 04:21:31;;;;;;;8.35;3.50;;;;;;;;;;4998656;28;20034;-84
2022/11/02 04:26:42;;;;;;;5.13;2.63;;;;;;;;;;4998385;28;20057;-84
2022/11/02 04:29:08;;;;;;;7.45;2.60;;;;;;;;;;4998104;28;20088;-84
2022/11/02 04:31:34;;;;;;;6.55;2.80;;;;;;;;;;5014498;28;20129;-84
2022/11/02 04:34:00;;;;;;;5.93;2.70;;;;;;;;;;4997275;28;20098;-83
2022/11/02 04:36:30;;;;;;;4.78;2.60;;;;;;;;;;5023354;23;20050;-84
2022/11/02 04:38:56;;;;;;;10.40;2.65;;;;;;;;;;4991198;28;20038;-82
2022/11/02 04:41:40;;;;;;;8.38;2.70;;;;;;;;;;5007589;28;20038;-82
2022/11/02 04:44:20;;;;;;;8.40;3.35;;;;;;;;;;5007624;28;20469;-81
2022/11/02 04:46:52;;;;;;;10.18;5.85;;;;;;;;;;5001876;28;20392;-80
2022/11/02 04:49:21;;;;;;;10.48;6.28;;;;;;;;;;4991126;28;20038;-82
2022/11/02 04:51:47;;;;;;;10.95;5.50;;;;;;;;;;4993919;28;20038;-80
2022/11/02 04:54:12;;;;;;;6.90;4.13;;;;;;;;;;5011548;28;20041;-82
2022/11/02 04:56:39;;;;;;;6.18;2.85;;;;;;;;;;4992764;28;20061;-81
2022/11/02 04:59:05;;;;;;;6.60;2.70;;;;;;;;;;4990863;28;20030;-81
2022/11/02 05:01:34;;;;;;;4.18;2.42;;;;;;;;;;4985486;28;20042;-83
2022/11/02 05:04:01;;;;;;;7.35;2.70;;;;;;;;;;4983654;28;20063;-82
2022/11/02 05:06:29;;;;;;;7.18;2.70;;;;;;;;;;4984253;28;20030;-80
2022/11/02 05:08:55;;;;;;;6.28;2.90;;;;;;;;;;4983142;28;20045;-81
2022/11/02 05:11:22;;;;;;;4.78;2.42;;;;;;;;;;4984112;28;20556;-81
2022/11/02 05:13:49;;;;;;;5.07;2.42;;;;;;;;;;4981656;28;20038;-80
2022/11/02 05:16:16;;;;;;;9.15;3.08;;;;;;;;;;4981333;28;20034;-81
2022/11/02 05:18:42;;;;;;;5.15;2.65;;;;;;;;;;4981421;28;20041;-81
2022/11/02 05:21:10;;;;;;;4.80;2.30;;;;;;;;;;5004719;28;20030;-80
2022/11/02 05:23:35;;;;;;;4.65;2.63;;;;;;;;;;4983682;28;20045;-83
2022/11/02 05:26:03;;;;;;;6.25;3.08;;;;;;;;;;4967574;28;20038;-82
2022/11/02 05:28:31;;;;;;;10.40;4.78;;;;;;;;;;4983075;28;20038;-81
2022/11/02 05:31:00;;;;;;;5.72;3.35;;;;;;;;;;4983274;28;20057;-82
2022/11/02 05:33:29;;;;;;;4.35;2.35;;;;;;;;;;4982678;28;20064;-82
2022/11/02 05:35:56;;;;;;;5.68;2.47;;;;;;;;;;4982623;28;20092;-80
2022/11/02 05:38:22;;;;;;;6.00;2.50;;;;;;;;;;4983206;28;20030;-82
2022/11/02 05:40:52;;;;;;;7.32;2.80;;;;;;;;;;5000233;28;20138;-81
2022/11/02 05:43:18;;;;;;;5.43;2.70;;;;;;;;;;4983021;28;20544;-81
2022/11/02 05:45:44;;;;;;;12.05;2.40;;;;;;;;;;4966974;28;20023;-82
2022/11/02 05:48:09;;;;;;;6.70;2.35;;;;;;;;;;5001718;28;20045;-81
2022/11/02 05:50:35;;;;;;;7.28;3.10;;;;;;;;;;4967026;28;20105;-80
2022/11/02 05:53:02;;;;;;;7.95;2.80;;;;;;;;;;5000950;28;20042;-81
2022/11/02 05:55:27;;;;;;;9.45;3.55;;;;;;;;;;4999079;28;20427;-82
2022/11/02 05:57:54;;;;;;;10.73;4.15;;;;;;;;;;4997170;28;20030;-82
2022/11/02 06:00:21;;;;;;;8.60;3.80;;;;;;;;;;4980015;28;20146;-81
2022/11/02 06:02:53;;;;;;;4.22;2.72;;;;;;;;;;4979443;28;20073;-83
2022/11/02 06:05:19;;;;;;;5.72;2.70;;;;;;;;;;4978856;28;20581;-82
2022/11/02 06:07:44;;;;;;;7.65;2.58;;;;;;;;;;4997549;28;20061;-83
2022/11/02 06:10:10;;;;;;;5.18;2.33;;;;;;;;;;4996113;28;20046;-82
2022/11/02 06:12:35;;;;;;;5.63;2.30;;;;;;;;;;4977772;28;20125;-82
2022/11/02 06:15:01;;;;;;;4.55;2.28;;;;;;;;;;4994626;28;20045;-81
2022/11/02 06:17:26;;;;;;;10.98;2.70;;;;;;;;;;4994757;28;20030;-82
2022/11/02 06:19:51;;;;;;;8.07;2.50;;;;;;;;;;4995390;28;20552;-81
2022/11/02 06:22:17;;;;;;;6.22;2.60;;;;;;;;;;4994989;28;20038;-83
2022/11/02 06:24:42;;;;;;;8.65;3.70;;;;;;;;;;4994136;28;20109;-83
2022/11/02 06:27:08;;;;;;;12.60;5.80;;;;;;;;;;4993932;28;20034;-82
2022/11/02 06:29:36;;;;;;;9.48;5.35;;;;;;;;;;4976602;28;20499;-82
2022/11/02 06:32:02;;;;;;;8.98;4.10;;;;;;;;;;5005276;28;20211;-83
2022/11/02 06:34:27;;;;;;;11.52;6.43;;;;;;;;;;4980352;28;20046;-83
2022/11/02 06:36:52;;;;;;;9.85;5.18;;;;;;;;;;4989343;28;20062;-82
2022/11/02 06:39:18;;;;;;;9.80;5.20;;;;;;;;;;4962402;28;20035;-83
2022/11/02 06:41:43;;;;;;;9.93;4.50;;;;;;;;;;4980821;28;20570;-82
2022/11/02 06:44:09;;;;;;;8.77;3.75;;;;;;;;;;4978189;28;20163;-82
2022/11/02 06:46:34;;;;;;;8.98;4.13;;;;;;;;;;4978555;28;20041;-83
2022/11/02 06:49:00;;;;;;;7.55;4.00;;;;;;;;;;4978186;28;20423;-83
2022/11/02 06:51:25;;;;;;;7.47;3.97;;;;;;;;;;4979445;28;20046;-82
2022/11/02 06:53:51;;;;;;;7.47;3.33;;;;;;;;;;4987789;28;20058;-81
2022/11/02 06:56:17;;;;;;;8.02;3.30;;;;;;;;;;4997143;28;20030;-81
2022/11/02 06:58:42;;;;;;;7.10;3.03;;;;;;;;;;4995684;28;20683;-84
2022/11/02 07:01:09;;;;;;;6.25;3.05;;;;;;;;;;4995696;28;20097;-83
2022/11/02 07:03:35;;;;;;;6.70;3.03;;;;;;;;;;4994532;28;20038;-86
2022/11/02 07:06:02;;;;;;;6.28;2.80;;;;;;;;;;4994390;28;20041;-83
2022/11/02 07:08:28;;;;;;;7.88;3.50;;;;;;;;;;4977657;28;20057;-84
2022/11/02 07:10:54;;;;;;;9.15;3.28;;;;;;;;;;4995610;28;20037;-81
2022/11/02 07:13:19;;;;;;;8.27;3.20;;;;;;;;;;4997278;28;20034;-83
2022/11/02 07:15:45;;;;;;;7.32;3.45;;;;;;;;;;4986510;28;20054;-83
2022/11/02 07:18:11;;;;;;;8.13;3.03;;;;;;;;;;4961215;28;20047;-83
2022/11/02 07:20:37;;;;;;;8.07;3.20;;;;;;;;;;4977169;28;20440;-84
2022/11/02 07:23:03;;;;;;;9.02;3.22;;;;;;;;;;4959639;28;20038;-82
2022/11/02 07:25:30;;;;;;;7.07;3.30;;;;;;;;;;4973543;28;20041;-81
2022/11/02 07:27:58;;;;;;;5.63;3.17;;;;;;;;;;4979410;28;20045;-83
2022/11/02 07:30:25;;;;;;;7.45;3.10;;;;;;;;;;4999521;28;20034;-83
2022/11/02 07:32:50;;;;;;;6.38;3.47;;;;;;;;;;4998484;28;20030;-83
2022/11/02 07:35:16;;;;;;;9.90;3.30;;;;;;;;;;4980410;28;20034;-84
2022/11/02 07:37:42;;;;;;;6.68;2.53;;;;;;;;;;4998823;28;20038;-84
2022/11/02 07:40:09;;;;;;;9.57;2.97;;;;;;;;;;4998832;28;20038;-82
2022/11/02 07:42:35;;;;;;;8.38;3.88;;;;;;;;;;5008286;28;20046;-82
2022/11/02 07:45:03;;;;;;;7.93;2.97;;;;;;;;;;4973717;28;20034;-81
2022/11/02 07:47:29;;;;;;;10.20;2.85;;;;;;;;;;4963950;28;20038;-81
2022/11/02 07:49:57;;;;;;;7.72;2.70;;;;;;;;;;4965479;28;20045;-86
2022/11/02 07:52:23;;;;;;;5.80;3.17;;;;;;;;;;4989866;28;20038;-82
2022/11/02 07:54:48;;;;;;;8.20;3.00;;;;;;;;;;4980967;28;20092;-85
2022/11/02 07:57:14;;;;;;;8.65;2.70;;;;;;;;;;4980698;28;20050;-82
2022/11/02 07:59:39;;;;;;;6.47;2.50;;;;;;;;;;4979062;28;20035;-83
2022/11/02 08:02:05;;;;;;;8.15;2.78;;;;;;;;;;4961291;28;20085;-82
2022/11/02 08:04:32;;;;;;;7.25;3.13;;;;;;;;;;4977972;28;20035;-82
2022/11/02 08:06:57;;;;;;;6.43;3.10;;;;;;;;;;4978532;28;20043;-82
2022/11/02 08:09:23;;;;;;;8.27;4.22;;;;;;;;;;4978838;28;20041;-83
2022/11/02 08:11:48;;;;;;;8.18;3.83;;;;;;;;;;4980275;28;20073;-82
2022/11/02 08:14:14;;;;;;;7.10;3.65;;;;;;;;;;4978546;28;20090;-83
2022/11/02 08:16:39;;;;;;;5.75;3.60;;;;;;;;;;4962296;28;20550;-82
2022/11/02 08:19:04;;;;;;;19.95;9.88;;;;;;;;;;4980806;28;20385;-82
2022/11/02 08:21:30;;;;;;;37.47;18.73;;;;;;;;;;4962273;28;20039;-82
2022/11/02 08:23:55;;;;;;;8.32;3.55;;;;;;;;;;4978683;28;20039;-82
2022/11/02 08:26:21;;;;;;;11.00;3.30;;;;;;;;;;4977898;28;20133;-81
2022/11/02 08:28:46;;;;;;;9.35;3.42;;;;;;;;;;4978053;28;20043;-82
2022/11/02 08:31:16;;;;;;;8.88;3.50;;;;;;;;;;4960623;28;20046;-81
2022/11/02 08:33:44;;;;;;;9.48;3.45;;;;;;;;;;4961458;28;20077;-82
2022/11/02 08:36:11;;;;;;;8.40;3.40;;;;;;;;;;4977362;28;20098;-83
2022/11/02 08:38:38;;;;;;;9.00;3.40;;;;;;;;;;4960922;28;20089;-83
2022/11/02 08:41:03;;;;;;;8.15;3.20;;;;;;;;;;4978229;28;20039;-83
2022/11/02 08:43:29;;;;;;;9.00;3.13;;;;;;;;;;4977515;28;20141;-82
2022/11/02 08:45:58;;;;;;;8.00;3.75;;;;;;;;;;4980966;28;20039;-83
2022/11/02 08:48:25;;;;;;;7.03;3.40;;;;;;;;;;4979303;28;20035;-82
2022/11/02 08:50:50;;;;;;;8.45;3.28;;;;;;;;;;4983545;28;20122;-83
2022/11/02 08:53:16;;;;;;;5.78;3.42;;;;;;;;;;4981012;28;20081;-83
2022/11/02 08:55:41;;;;;;;9.00;3.13;;;;;;;;;;4980317;28;20042;-81
2022/11/02 08:58:07;;;;;;;7.80;2.90;;;;;;;;;;4964428;28;20047;-85
2022/11/02 09:00:34;;;;;;;6.13;2.53;;;;;;;;;;4947762;28;20046;-83
2022/11/02 09:03:11;;;;;;;9.35;3.08;;;;;;;;;;4980290;28;20039;-81
2022/11/02 09:05:42;;;;;;;6.60;3.33;;;;;;;;;;4980038;28;20063;-82
2022/11/02 09:08:19;;;;;;;7.03;2.95;;;;;;;;;;4978042;28;20042;-84
2022/11/02 09:10:50;;;;;;;6.65;3.13;;;;;;;;;;4960150;28;20034;-85
2022/11/02 09:13:23;;;;;;;7.47;2.92;;;;;;;;;;4975934;28;20054;-85
2022/11/02 09:15:49;;;;;;;;;;;;;;;;;;4958827;28;20039;-86
2022/11/02 09:18:15;;;;;;;7.93;3.22;;;;;;;;;;4976920;28;19914;-84
2022/11/02 09:20:40;;;;;;;8.60;3.10;;;;;;;;;;4976348;28;20113;-87
2022/11/02 09:23:06;;;;;;;7.82;2.90;;;;;;;;;;4958951;28;20039;-87
2022/11/02 09:25:32;;;;;;;5.85;2.97;;;;;;;;;;4957845;28;20034;-86
2022/11/02 09:27:57;;;;;;;6.82;3.08;;;;;;;;;;4975726;28;20034;-84
2022/11/02 09:30:24;;;;;;;7.53;3.40;;;;;;;;;;4958617;28;20031;-86
2022/11/02 09:32:54;;;;;;;6.85;3.15;;;;;;;;;;4959009;28;20050;-86
2022/11/02 09:35:19;;;;;;;8.82;3.60;;;;;;;;;;4957416;28;20134;-86
2022/11/02 09:37:45;;;;;;;10.25;3.45;;;;;;;;;;4957825;28;20118;-86
2022/11/02 09:40:19;;;;;;;7.28;3.20;;;;;;;;;;4958170;28;20073;-86
2022/11/02 09:43:04;;;;;;;8.52;3.25;;;;;;;;;;4975329;28;20059;-84
2022/11/02 09:45:33;;;;;;;6.53;3.40;;;;;;;;;;4976060;28;20031;-82
2022/11/02 09:48:09;;;;;;;6.90;3.10;;;;;;;;;;4977084;28;20039;-81
2022/11/02 09:50:54;;;;;;;7.50;3.03;;;;;;;;;;4977895;28;20073;-86
2022/11/02 09:53:28;;;;;;;11.73;4.90;;;;;;;;;;4976448;28;20031;-84
2022/11/02 09:55:58;;;;;;;10.90;4.32;;;;;;;;;;4975112;28;20037;-83
2022/11/02 09:58:32;;;;;;;8.52;3.60;;;;;;;;;;4942510;28;20060;-82
2022/11/02 10:01:18;;;;;;;14.20;6.00;;;;;;;;;;4979763;28;20050;-81
2022/11/02 10:03:58;;;;;;;8.98;4.13;;;;;;;;;;4978516;28;20097;-83
2022/11/02 10:06:25;;;;;;;10.82;4.00;;;;;;;;;;4976599;28;20113;-85
2022/11/02 10:08:58;;;;;;;8.52;3.30;;;;;;;;;;4975018;28;20026;-84
2022/11/02 10:11:46;;;;;;;8.30;3.50;;;;;;;;;;4958914;28;20031;-84
2022/11/02 10:14:14;;;;;;;6.65;3.45;;;;;;;;;;4956649;28;20042;-84
2022/11/02 10:17:07;;;;;;;8.60;3.80;;;;;;;;;;4958506;28;20038;-83
2022/11/02 10:19:36;;;;;;;9.40;3.80;;;;;;;;;;4973500;28;20082;-84
2022/11/02 10:22:01;;;;;;;8.82;3.70;;;;;;;;;;4958953;28;20559;-87
2022/11/02 10:24:42;;;;;;;14.93;4.63;;;;;;;;;;4978619;28;20039;-84
2022/11/02 10:27:25;;;;;;;7.68;3.80;;;;;;;;;;4981777;28;20399;-84
2022/11/02 10:29:53;;;;;;;12.95;3.83;;;;;;;;;;4981813;28;20042;-85
2022/11/02 10:32:19;;;;;;;11.00;3.60;;;;;;;;;;4982494;28;20038;-84
2022/11/02 10:34:45;;;;;;;10.70;4.07;;;;;;;;;;4961843;28;20444;-84
2022/11/02 10:37:33;;;;;;;6.95;3.03;;;;;;;;;;5000074;23;20052;-84
2022/11/02 10:40:10;;;;;;;8.38;3.13;;;;;;;;;;5017002;28;20041;-85
2022/11/02 10:42:54;;;;;;;8.05;2.72;;;;;;;;;;4998952;28;20030;-84
2022/11/02 10:45:41;;;;;;;10.52;2.90;;;;;;;;;;5016004;28;20037;-86
2022/11/02 10:48:17;;;;;;;7.72;2.28;;;;;;;;;;5015801;28;20030;-84
2022/11/02 10:51:04;;;;;;;5.07;1.98;;;;;;;;;;5000023;28;20570;-84
2022/11/02 10:53:34;;;;;;;4.03;1.80;;;;;;;;;;4999835;28;20069;-85
2022/11/02 10:56:20;;;;;;;4.45;2.08;;;;;;;;;;4999375;28;20069;-85
2022/11/02 10:58:58;;;;;;;6.45;2.08;;;;;;;;;;5003504;28;20053;-86
2022/11/02 11:01:24;;;;;;;6.18;2.38;;;;;;;;;;5017479;28;20034;-87
2022/11/02 11:03:52;;;;;;;6.47;2.65;;;;;;;;;;5017190;28;20052;-86
2022/11/02 11:06:18;;;;;;;6.40;2.45;;;;;;;;;;5017125;28;20101;-86
2022/11/02 11:08:48;;;;;;;7.82;2.40;;;;;;;;;;4999620;28;20030;-87
2022/11/02 11:11:14;;;;;;;5.15;2.25;;;;;;;;;;5017228;28;20025;-87
2022/11/02 11:13:41;;;;;;;6.20;2.20;;;;;;;;;;5016420;28;20454;-85
2022/11/02 11:16:07;;;;;;;6.72;1.77;;;;;;;;;;5016874;28;20038;-85
2022/11/02 11:18:33;;;;;;;5.35;1.48;;;;;;;;;;5017374;28;20037;-84
2022/11/02 11:20:59;;;;;;;5.47;1.40;;;;;;;;;;5016773;28;20045;-85
2022/11/02 11:23:25;;;;;;;6.85;1.40;;;;;;;;;;4999482;28;20041;-84
2022/11/02 11:26:04;;;;;;;2.95;1.15;;;;;;;;;;4999345;28;20034;-84
2022/11/02 11:28:35;;;;;;;6.03;1.40;;;;;;;;;;4999999;28;20065;-85
2022/11/02 11:31:01;;;;;;;6.63;1.45;;;;;;;;;;5017757;28;20038;-84
2022/11/02 11:33:27;;;;;;;4.78;1.50;;;;;;;;;;5017251;28;20032;-85
2022/11/02 11:35:52;;;;;;;4.53;1.38;;;;;;;;;;5016718;28;20041;-84
2022/11/02 11:38:21;;;;;;;4.57;1.33;;;;;;;;;;5017543;28;20037;-84
2022/11/02 11:40:53;;;;;;;6.53;1.40;;;;;;;;;;4999306;28;20038;-85
2022/11/02 11:43:28;;;;;;;4.60;1.10;;;;;;;;;;5017241;28;20030;-86
2022/11/02 11:45:59;;;;;;;5.03;1.88;;;;;;;;;;4998665;28;20038;-85
2022/11/02 11:48:54;;;;;;;4.43;1.50;;;;;;;;;;5000070;28;20044;-84
2022/11/02 11:51:19;;;;;;;4.43;1.20;;;;;;;;;;4999721;28;20052;-84
2022/11/02 11:54:28;;;;;;;8.48;2.67;;;;;;;;;;5017527;28;20041;-84
2022/11/02 11:56:59;;;;;;;5.13;2.08;;;;;;;;;;5012653;28;20494;-84
2022/11/02 11:59:47;;;;;;;3.85;1.70;;;;;;;;;;4999424;28;20111;-84
2022/11/02 12:02:26;;;;;;;5.03;1.65;;;;;;;;;;4999642;28;20388;-83
2022/11/02 12:05:19;;;;;;;4.50;1.40;;;;;;;;;;5017375;28;20038;-84
2022/11/02 12:08:05;;;;;;;4.95;1.42;;;;;;;;;;5017489;28;20131;-84
2022/11/02 12:10:36;;;;;;;5.00;1.20;;;;;;;;;;5016466;28;20057;-83
2022/11/02 12:13:34;;;;;;;5.50;1.45;;;;;;;;;;4997771;28;20547;-83
2022/11/02 12:16:12;;;;;;;5.68;1.40;;;;;;;;;;5019738;28;20100;-85
2022/11/02 12:18:47;;;;;;;4.43;1.08;;;;;;;;;;5020248;28;20399;-85
2022/11/02 12:21:18;;;;;;;5.75;1.30;;;;;;;;;;5020119;28;20099;-85
2022/11/02 12:24:11;;;;;;;3.15;1.23;;;;;;;;;;5019379;28;20125;-84
2022/11/02 12:27:14;;;;;;;4.97;1.50;;;;;;;;;;5019634;28;20042;-84
2022/11/02 12:30:08;;;;;;;5.72;1.20;;;;;;;;;;5001990;28;20520;-84
2022/11/02 12:32:55;;;;;;;4.28;1.17;;;;;;;;;;5018878;28;20041;-83
2022/11/02 12:35:29;;;;;;;3.63;1.27;;;;;;;;;;5000706;28;20052;-83
2022/11/02 12:37:58;;;;;;;4.30;1.10;;;;;;;;;;5000776;28;20104;-83
2022/11/02 12:40:59;;;;;;;3.83;1.13;;;;;;;;;;5019331;28;20034;-82
2022/11/02 12:43:42;;;;;;;6.00;1.20;;;;;;;;;;5018421;28;20046;-85
2022/11/02 12:46:27;;;;;;;4.70;1.15;;;;;;;;;;5019368;28;20041;-84
2022/11/02 12:49:15;;;;;;;3.58;1.40;;;;;;;;;;5000958;28;20557;-83
2022/11/02 12:52:22;;;;;;;3.53;1.17;;;;;;;;;;5016742;28;20041;-83
2022/11/02 12:54:54;;;;;;;7.15;1.50;;;;;;;;;;4972944;28;20042;-85
2022/11/02 12:57:27;;;;;;;3.80;1.27;;;;;;;;;;5017616;28;20037;-83
2022/11/02 12:59:58;;;;;;;4.00;1.20;;;;;;;;;;5017115;28;20030;-83
2022/11/02 13:03:02;;;;;;;5.60;1.60;;;;;;;;;;5018591;28;20505;-83
2022/11/02 13:05:39;;;;;;;5.15;1.40;;;;;;;;;;5016921;28;20037;-83
2022/11/02 13:08:13;;;;;;;4.38;1.30;;;;;;;;;;5000449;28;20038;-85
2022/11/02 13:11:08;;;;;;;4.10;1.30;;;;;;;;;;5001625;28;20040;-84
2022/11/02 13:13:47;;;;;;;4.28;1.20;;;;;;;;;;5015468;28;20034;-85
2022/11/02 13:16:16;;;;;;;4.80;1.40;;;;;;;;;;5000801;28;20042;-88
2022/11/02 13:18:47;;;;;;;4.13;1.23;;;;;;;;;;5018472;28;20096;-84
2022/11/02 13:21:17;;;;;;;4.50;1.20;;;;;;;;;;5018484;28;20120;-83
2022/11/02 13:23:48;;;;;;;5.60;1.20;;;;;;;;;;5000157;28;20109;-83
2022/11/02 13:26:25;;;;;;;8.38;1.92;;;;;;;;;;5017034;28;20108;-83
2022/11/02 13:29:06;;;;;;;8.93;1.60;;;;;;;;;;5017050;28;20056;-84
2022/11/02 13:31:40;;;;;;;6.00;1.67;;;;;;;;;;5018101;28;20767;-85
2022/11/02 13:34:21;;;;;;;3.50;1.30;;;;;;;;;;4999739;28;20037;-83
2022/11/02 13:36:47;;;;;;;4.35;1.58;;;;;;;;;;5007848;28;20062;-84
2022/11/02 13:39:24;;;;;;;3.95;1.52;;;;;;;;;;5017551;28;20038;-85
2022/11/02 13:42:51;;;;;;;5.70;1.92;;;;;;;;;;5018450;28;20030;-83
2022/11/02 13:45:22;;;;;;;6.95;1.90;;;;;;;;;;4933974;29;20082;-85
2022/11/02 13:48:06;;;;;;;8.73;2.00;;;;;;;;;;4938762;29;20035;-84
2022/11/02 13:50:38;;;;;;;2.92;1.38;;;;;;;;;;4987948;28;20045;-83
2022/11/02 13:53:11;;;;;;;4.40;1.85;;;;;;;;;;5017948;28;20046;-84
2022/11/02 13:55:39;;;;;;;4.57;1.48;;;;;;;;;;5017564;28;20484;-85
2022/11/02 13:58:05;;;;;;;6.50;1.50;;;;;;;;;;5000237;28;20097;-85
2022/11/02 14:00:42;;;;;;;3.72;1.30;;;;;;;;;;5017331;28;20076;-84
2022/11/02 14:03:16;;;;;;;7.80;1.92;;;;;;;;;;5017310;28;20092;-84
2022/11/02 14:06:10;;;;;;;10.00;2.72;;;;;;;;;;5016512;28;20041;-84
2022/11/02 14:08:40;;;;;;;5.60;1.80;;;;;;;;;;5012851;28;20045;-84
2022/11/02 14:11:08;;;;;;;4.65;1.20;;;;;;;;;;4999874;28;20049;-85
2022/11/02 14:13:52;;;;;;;6.65;1.95;;;;;;;;;;5016121;28;20133;-84
2022/11/02 14:16:39;;;;;;;5.80;1.63;;;;;;;;;;5016612;28;20172;-84
2022/11/02 14:19:17;;;;;;;5.85;1.23;;;;;;;;;;5016403;28;20033;-84
2022/11/02 14:21:57;;;;;;;3.90;1.30;;;;;;;;;;4999835;28;20060;-84
2022/11/02 14:24:35;;;;;;;6.38;1.30;;;;;;;;;;5016394;28;20498;-84
2022/11/02 14:27:03;;;;;;;2.65;1.00;;;;;;;;;;5017381;28;20042;-83
2022/11/02 14:29:41;;;;;;;4.03;1.33;;;;;;;;;;5016914;28;20392;-83
2022/11/02 14:32:12;;;;;;;6.03;1.40;;;;;;;;;;5016458;28;20046;-85
2022/11/02 14:34:53;;;;;;;5.20;1.40;;;;;;;;;;5015813;28;20054;-84
2022/11/02 14:37:19;;;;;;;5.57;1.27;;;;;;;;;;5017072;28;20038;-89
2022/11/02 14:40:03;;;;;;;3.40;1.00;;;;;;;;;;5016580;28;20725;-85
2022/11/02 14:43:06;;;;;;;5.72;1.20;;;;;;;;;;4999176;28;20068;-85
2022/11/02 14:46:19;;;;;;;4.60;1.60;;;;;;;;;;5016174;28;20045;-85
2022/11/02 14:48:56;;;;;;;9.32;1.70;;;;;;;;;;4986024;28;20076;-84
2022/11/02 14:51:30;;;;;;;6.43;2.40;;;;;;;;;;5017509;28;20042;-84
2022/11/02 14:54:00;;;;;;;5.50;2.38;;;;;;;;;;5016483;28;20042;-84
2022/11/02 14:56:50;;;;;;;11.98;3.90;;;;;;;;;;5016396;28;20072;-86
2022/11/02 14:59:38;;;;;;;11.02;2.97;;;;;;;;;;5017021;28;20049;-86
2022/11/02 15:02:14;;;;;;;6.10;1.65;;;;;;;;;;4999300;28;20042;-86
2022/11/02 15:05:07;;;;;;;9.30;2.55;;;;;;;;;;5016478;28;20124;-86
2022/11/02 15:07:41;;;;;;;6.80;1.60;;;;;;;;;;5014786;28;20049;-86
2022/11/02 15:10:29;;;;;;;7.35;1.50;;;;;;;;;;5017028;28;20038;-85
2022/11/02 15:13:19;;;;;;;4.15;1.30;;;;;;;;;;5014964;28;20062;-85
2022/11/02 15:16:05;;;;;;;5.63;1.30;;;;;;;;;;5015510;28;20087;-85
2022/11/02 15:18:35;;;;;;;6.70;1.20;;;;;;;;;;4999142;28;20042;-85
2022/11/02 15:21:10;;;;;;;4.38;1.20;;;;;;;;;;5016680;28;20124;-85
2022/11/02 15:24:06;;;;;;;9.20;1.20;;;;;;;;;;5016243;28;20038;-84
2022/11/02 15:26:56;;;;;;;9.75;1.45;;;;;;;;;;4998250;28;20103;-85